Bluff Springs, Illinois
Current Conditions -  °F | °C
As of 10:15 PM on Friday 19 Dec 2014 (Local Time) from KIJX Reporting Station
Overcast Overcast  
Wind Chill: 33°   Ceiling: 5000
Heat Index: 33°   Visibility: 7mi
Dew Point: 28°   Wind: 3mph
Humidity: 81%   Direction: 120°ESE
Pressure: 30.27"   Gusts: NA
Location:  39.99°N, 90.35°W
Report Text: KIJX 200415Z AUTO 12003KT 7SM OVC050 01/M02 A3027 RMK AO2 T00071022
Loading
Personal Weather Stations






























Interactive Weather Map New forecast layout! Learn more

10-Day Weather Forecast

Advertisements
Track Severe Weather on mobile